sensor_id;sensor_type;location;lat;lon;timestamp;P1;durP1;ratioP1;P2;durP2;ratioP2
60203;SDS011;46068;52.132;4.618;2023-05-07T08:18:31;20.80;;;10.52;;
60203;SDS011;46068;52.132;4.618;2023-05-07T14:21:42;18.15;;;10.75;;
60203;SDS011;46068;52.132;4.618;2023-05-07T14:24:09;15.05;;;10.65;;
60203;SDS011;46068;52.132;4.618;2023-05-07T14:26:35;13.55;;;9.35;;
60203;SDS011;46068;52.132;4.618;2023-05-07T14:29:02;16.83;;;9.55;;
60203;SDS011;46068;52.132;4.618;2023-05-07T14:31:28;15.43;;;9.23;;
60203;SDS011;46068;52.132;4.618;2023-05-07T14:33:54;16.52;;;9.50;;
60203;SDS011;46068;52.132;4.618;2023-05-07T14:36:22;15.52;;;10.48;;
60203;SDS011;46068;52.132;4.618;2023-05-07T14:38:52;17.83;;;9.88;;
60203;SDS011;46068;52.132;4.618;2023-05-07T14:41:19;20.27;;;10.85;;
60203;SDS011;46068;52.132;4.618;2023-05-07T14:43:45;15.23;;;10.23;;
60203;SDS011;46068;52.132;4.618;2023-05-07T14:46:14;15.82;;;11.77;;
60203;SDS011;46068;52.132;4.618;2023-05-07T14:48:41;19.55;;;12.07;;
60203;SDS011;46068;52.132;4.618;2023-05-07T14:51:07;20.95;;;12.15;;
60203;SDS011;46068;52.132;4.618;2023-05-07T14:53:34;18.58;;;11.05;;
60203;SDS011;46068;52.132;4.618;2023-05-07T14:56:01;22.58;;;11.85;;
60203;SDS011;46068;52.132;4.618;2023-05-07T14:58:28;21.73;;;11.88;;
60203;SDS011;46068;52.132;4.618;2023-05-07T15:00:54;23.95;;;15.32;;
60203;SDS011;46068;52.132;4.618;2023-05-07T15:03:20;19.13;;;12.57;;
60203;SDS011;46068;52.132;4.618;2023-05-07T15:05:48;18.95;;;13.45;;
60203;SDS011;46068;52.132;4.618;2023-05-07T15:08:16;20.30;;;13.40;;
60203;SDS011;46068;52.132;4.618;2023-05-07T15:10:42;18.55;;;12.82;;
60203;SDS011;46068;52.132;4.618;2023-05-07T15:13:10;23.27;;;14.40;;
60203;SDS011;46068;52.132;4.618;2023-05-07T15:15:37;20.58;;;12.27;;
60203;SDS011;46068;52.132;4.618;2023-05-07T15:18:04;16.25;;;11.15;;
60203;SDS011;46068;52.132;4.618;2023-05-07T15:20:30;17.77;;;13.75;;
60203;SDS011;46068;52.132;4.618;2023-05-07T15:22:57;16.55;;;11.48;;
60203;SDS011;46068;52.132;4.618;2023-05-07T15:25:23;17.23;;;12.07;;
60203;SDS011;46068;52.132;4.618;2023-05-07T15:27:49;17.08;;;10.88;;
60203;SDS011;46068;52.132;4.618;2023-05-07T15:30:17;19.40;;;10.52;;
60203;SDS011;46068;52.132;4.618;2023-05-07T15:32:45;17.75;;;10.00;;
60203;SDS011;46068;52.132;4.618;2023-05-07T15:35:11;20.55;;;10.65;;
60203;SDS011;46068;52.132;4.618;2023-05-07T15:37:37;18.58;;;11.10;;
60203;SDS011;46068;52.132;4.618;2023-05-07T15:40:04;21.05;;;11.48;;
60203;SDS011;46068;52.132;4.618;2023-05-07T15:42:31;21.33;;;11.77;;
60203;SDS011;46068;52.132;4.618;2023-05-07T15:44:58;18.65;;;12.07;;
60203;SDS011;46068;52.132;4.618;2023-05-07T15:47:26;17.80;;;11.45;;
60203;SDS011;46068;52.132;4.618;2023-05-07T15:49:53;18.75;;;12.40;;
60203;SDS011;46068;52.132;4.618;2023-05-07T15:52:19;19.13;;;11.57;;
60203;SDS011;46068;52.132;4.618;2023-05-07T15:54:45;21.70;;;13.45;;
60203;SDS011;46068;52.132;4.618;2023-05-07T15:57:12;17.95;;;12.15;;
60203;SDS011;46068;52.132;4.618;2023-05-07T15:59:38;18.92;;;11.63;;
60203;SDS011;46068;52.132;4.618;2023-05-07T16:02:05;20.83;;;11.45;;
60203;SDS011;46068;52.132;4.618;2023-05-07T16:04:33;19.02;;;11.73;;
60203;SDS011;46068;52.132;4.618;2023-05-07T16:06:59;16.92;;;10.50;;
60203;SDS011;46068;52.132;4.618;2023-05-07T16:09:26;16.23;;;10.38;;
60203;SDS011;46068;52.132;4.618;2023-05-07T16:11:53;17.13;;;10.98;;
60203;SDS011;46068;52.132;4.618;2023-05-07T16:14:20;16.70;;;10.23;;
60203;SDS011;46068;52.132;4.618;2023-05-07T16:16:46;16.58;;;9.52;;
60203;SDS011;46068;52.132;4.618;2023-05-07T16:19:12;17.38;;;10.93;;
60203;SDS011;46068;52.132;4.618;2023-05-07T16:21:41;18.35;;;10.25;;
60203;SDS011;46068;52.132;4.618;2023-05-07T16:24:07;19.10;;;10.32;;
60203;SDS011;46068;52.132;4.618;2023-05-07T16:26:33;18.13;;;10.65;;
